THY5LW LTFM-LYTV
Flight info
| Callsign | THY5LW |
|---|---|
| Flight time | 1h 29m |
| Altitude | 34000 |
| Route | VADEN N618 BAKLO DCT LETNI DCT MAVAR DCT RETRA L604 POD |
| Aircraft | A321/M-SDE3FGHIRWY/LB1 |
Departure
| Time | 2026-05-04 11:05 |
|---|---|
| Airport | İstanbul Airport (LTFM) |
Arrival
| Time | 2026-05-04 12:35 |
|---|---|
| Airport | Tivat Airport (LYTV) |
| Time | Latitude | Longitude | Altitude | Speed | Heading |
|---|---|---|---|---|---|
| 2026-05-04 09:51 | 41.26600 | 28.74999 | 331 ft | 0 kts | 287° |
| 2026-05-04 10:49 | 41.26589 | 28.75048 | 331 ft | 4 kts | 286° |
| 2026-05-04 10:49 | 41.26582 | 28.75076 | 330 ft | 4 kts | 277° |
| 2026-05-04 10:50 | 41.26585 | 28.75109 | 329 ft | 4 kts | 239° |
| 2026-05-04 10:51 | 41.26622 | 28.75141 | 330 ft | 0 kts | 197° |
| 2026-05-04 10:58 | 41.26621 | 28.75141 | 334 ft | 1 kts | 197° |
| 2026-05-04 10:58 | 41.26594 | 28.75130 | 332 ft | 7 kts | 197° |
| 2026-05-04 10:58 | 41.26535 | 28.75106 | 332 ft | 10 kts | 197° |
| 2026-05-04 10:59 | 41.26454 | 28.75074 | 331 ft | 14 kts | 196° |
| 2026-05-04 10:59 | 41.26352 | 28.75032 | 331 ft | 17 kts | 198° |
| 2026-05-04 10:59 | 41.26248 | 28.75038 | 334 ft | 16 kts | 123° |
| 2026-05-04 10:59 | 41.26245 | 28.75185 | 334 ft | 16 kts | 89° |
| 2026-05-04 11:00 | 41.26247 | 28.75344 | 331 ft | 17 kts | 89° |
| 2026-05-04 11:01 | 41.26251 | 28.75593 | 334 ft | 9 kts | 89° |
| 2026-05-04 11:02 | 41.26280 | 28.75662 | 334 ft | 10 kts | 15° |
| 2026-05-04 11:02 | 41.26316 | 28.75665 | 333 ft | 0 kts | 359° |
| 2026-05-04 11:05 | 41.38921 | 28.82421 | 4842 ft | 243 kts | 1° |
| 2026-05-04 11:06 | 41.40616 | 28.82264 | 5547 ft | 245 kts | 353° |
| 2026-05-04 11:06 | 41.42310 | 28.82036 | 6401 ft | 245 kts | 354° |
| 2026-05-04 11:06 | 41.42912 | 28.81960 | 6669 ft | 245 kts | 354° |
| 2026-05-04 11:08 | 41.55010 | 28.80494 | 10845 ft | 286 kts | 356° |
| 2026-05-04 11:10 | 41.65313 | 28.66630 | 14492 ft | 354 kts | 297° |
| 2026-05-04 11:12 | 41.67952 | 28.42630 | 17936 ft | 383 kts | 298° |
| 2026-05-04 11:12 | 41.69010 | 28.39351 | 18416 ft | 386 kts | 298° |
| 2026-05-04 11:12 | 41.70091 | 28.36050 | 18839 ft | 389 kts | 298° |
| 2026-05-04 11:12 | 41.71177 | 28.32739 | 19391 ft | 388 kts | 298° |
| 2026-05-04 11:13 | 41.72263 | 28.29419 | 19882 ft | 390 kts | 298° |
| 2026-05-04 11:13 | 41.73354 | 28.26070 | 20321 ft | 394 kts | 298° |
| 2026-05-04 11:13 | 41.74446 | 28.22700 | 20753 ft | 397 kts | 298° |
| 2026-05-04 11:13 | 41.75551 | 28.19287 | 21193 ft | 401 kts | 298° |
| 2026-05-04 11:14 | 41.78167 | 28.11203 | 22166 ft | 409 kts | 298° |
| 2026-05-04 11:16 | 41.87016 | 27.83616 | 24805 ft | 433 kts | 297° |
| 2026-05-04 11:16 | 41.88201 | 27.79885 | 25101 ft | 436 kts | 297° |
| 2026-05-04 11:16 | 41.89394 | 27.76129 | 25389 ft | 439 kts | 297° |
| 2026-05-04 11:17 | 41.90596 | 27.72343 | 25689 ft | 442 kts | 297° |
| 2026-05-04 11:17 | 41.91806 | 27.68530 | 25995 ft | 445 kts | 297° |
| 2026-05-04 11:19 | 42.00433 | 27.41215 | 28051 ft | 463 kts | 296° |
| 2026-05-04 11:19 | 42.01685 | 27.37219 | 28337 ft | 465 kts | 296° |
| 2026-05-04 11:19 | 42.02944 | 27.33199 | 28599 ft | 468 kts | 296° |
| 2026-05-04 11:19 | 42.04207 | 27.29157 | 28874 ft | 470 kts | 296° |
| 2026-05-04 11:20 | 42.05496 | 27.25099 | 29132 ft | 471 kts | 299° |
| 2026-05-04 11:20 | 42.07071 | 27.21320 | 29376 ft | 469 kts | 308° |
| 2026-05-04 11:20 | 42.09059 | 27.17845 | 29588 ft | 468 kts | 316° |
| 2026-05-04 11:20 | 42.11245 | 27.14585 | 29824 ft | 470 kts | 316° |
| 2026-05-04 11:22 | 42.26655 | 26.91343 | 31857 ft | 476 kts | 315° |
| 2026-05-04 11:22 | 42.28860 | 26.88006 | 32191 ft | 475 kts | 315° |
| 2026-05-04 11:23 | 42.31064 | 26.84670 | 32506 ft | 475 kts | 315° |
| 2026-05-04 11:23 | 42.33261 | 26.81337 | 32818 ft | 475 kts | 315° |
| 2026-05-04 11:24 | 42.46398 | 26.61309 | 34080 ft | 472 kts | 314° |
| 2026-05-04 11:25 | 42.48574 | 26.57978 | 34077 ft | 471 kts | 313° |
| 2026-05-04 11:25 | 42.50510 | 26.54395 | 34083 ft | 473 kts | 302° |
| 2026-05-04 11:25 | 42.51963 | 26.50392 | 34084 ft | 475 kts | 291° |
| 2026-05-04 11:26 | 42.53286 | 26.41669 | 34082 ft | 474 kts | 270° |
| 2026-05-04 11:27 | 42.50468 | 26.10689 | 34083 ft | 474 kts | 261° |
| 2026-05-04 11:28 | 42.49583 | 26.01846 | 34094 ft | 473 kts | 261° |
| 2026-05-04 11:28 | 42.48693 | 25.93099 | 34103 ft | 471 kts | 260° |
| 2026-05-04 11:29 | 42.47789 | 25.84307 | 34106 ft | 471 kts | 260° |
| 2026-05-04 11:29 | 42.46886 | 25.75526 | 34099 ft | 470 kts | 260° |
| 2026-05-04 11:33 | 42.40571 | 25.16240 | 34098 ft | 462 kts | 259° |
| 2026-05-04 11:33 | 42.39633 | 25.07648 | 34106 ft | 460 kts | 259° |
| 2026-05-04 11:34 | 42.38688 | 24.99093 | 34107 ft | 460 kts | 259° |
| 2026-05-04 11:34 | 42.37738 | 24.90548 | 34109 ft | 459 kts | 260° |
| 2026-05-04 11:35 | 42.36783 | 24.82024 | 34114 ft | 458 kts | 259° |
| 2026-05-04 11:35 | 42.35824 | 24.73512 | 34112 ft | 457 kts | 259° |
| 2026-05-04 11:36 | 42.34859 | 24.65007 | 34115 ft | 457 kts | 259° |
| 2026-05-04 11:36 | 42.33893 | 24.56512 | 34115 ft | 457 kts | 259° |
| 2026-05-04 11:37 | 42.32923 | 24.48035 | 34113 ft | 457 kts | 259° |
| 2026-05-04 11:37 | 42.31944 | 24.39599 | 34130 ft | 457 kts | 259° |
| 2026-05-04 11:38 | 42.30952 | 24.31113 | 34122 ft | 457 kts | 259° |
| 2026-05-04 11:38 | 42.29959 | 24.22635 | 34126 ft | 457 kts | 259° |
| 2026-05-04 11:39 | 42.28963 | 24.14157 | 34124 ft | 457 kts | 259° |
| 2026-05-04 11:41 | 42.25769 | 23.87472 | 34139 ft | 457 kts | 259° |
| 2026-05-04 11:41 | 42.24742 | 23.78999 | 34138 ft | 457 kts | 259° |
| 2026-05-04 11:42 | 42.23713 | 23.70582 | 34135 ft | 457 kts | 260° |
| 2026-05-04 11:42 | 42.22675 | 23.62110 | 34135 ft | 458 kts | 260° |
| 2026-05-04 11:43 | 42.21630 | 23.53619 | 34142 ft | 458 kts | 260° |
| 2026-05-04 11:43 | 42.20573 | 23.45124 | 34137 ft | 459 kts | 260° |
| 2026-05-04 11:44 | 42.19506 | 23.36639 | 34127 ft | 459 kts | 263° |
| 2026-05-04 11:44 | 42.18436 | 23.28142 | 34126 ft | 460 kts | 262° |
| 2026-05-04 11:45 | 42.17358 | 23.19626 | 34117 ft | 460 kts | 263° |
| 2026-05-04 11:45 | 42.16280 | 23.11168 | 34131 ft | 461 kts | 263° |
| 2026-05-04 11:46 | 42.15189 | 23.02660 | 34136 ft | 460 kts | 263° |
| 2026-05-04 11:46 | 42.14093 | 22.94158 | 34146 ft | 459 kts | 263° |
| 2026-05-04 11:47 | 42.12996 | 22.85684 | 34138 ft | 459 kts | 263° |
| 2026-05-04 11:47 | 42.11893 | 22.77218 | 34112 ft | 459 kts | 263° |
| 2026-05-04 11:48 | 42.10776 | 22.68758 | 34133 ft | 458 kts | 264° |
| 2026-05-04 11:48 | 42.09646 | 22.60323 | 34141 ft | 458 kts | 263° |
| 2026-05-04 11:49 | 42.08183 | 22.51955 | 34142 ft | 460 kts | 259° |
| 2026-05-04 11:49 | 42.06452 | 22.43674 | 34121 ft | 460 kts | 259° |
| 2026-05-04 11:50 | 42.04722 | 22.35381 | 34133 ft | 459 kts | 259° |
| 2026-05-04 11:50 | 42.03067 | 22.27088 | 34136 ft | 459 kts | 260° |
| 2026-05-04 11:51 | 42.01438 | 22.18785 | 34143 ft | 459 kts | 260° |
| 2026-05-04 11:51 | 41.99801 | 22.10559 | 34123 ft | 458 kts | 261° |
| 2026-05-04 11:52 | 41.98138 | 22.02290 | 34146 ft | 458 kts | 261° |
| 2026-05-04 11:52 | 41.96473 | 21.94034 | 34143 ft | 457 kts | 261° |
| 2026-05-04 11:53 | 41.94811 | 21.85798 | 34159 ft | 457 kts | 261° |
| 2026-05-04 11:53 | 41.93146 | 21.77572 | 34128 ft | 456 kts | 261° |
| 2026-05-04 11:55 | 41.86444 | 21.44927 | 34157 ft | 451 kts | 260° |
| 2026-05-04 11:56 | 41.84761 | 21.36817 | 34156 ft | 451 kts | 260° |
| 2026-05-04 11:56 | 41.83075 | 21.28718 | 34156 ft | 451 kts | 260° |
| 2026-05-04 11:57 | 41.81395 | 21.20681 | 34153 ft | 450 kts | 261° |
| 2026-05-04 11:57 | 41.79711 | 21.12605 | 34135 ft | 450 kts | 261° |
| 2026-05-04 11:58 | 41.78019 | 21.04627 | 33759 ft | 437 kts | 261° |
| 2026-05-04 11:58 | 41.77182 | 21.00693 | 33484 ft | 441 kts | 261° |
| 2026-05-04 11:58 | 41.76349 | 20.96729 | 33230 ft | 442 kts | 261° |
| 2026-05-04 11:58 | 41.75515 | 20.92761 | 32969 ft | 443 kts | 261° |
| 2026-05-04 11:59 | 41.74677 | 20.88796 | 32703 ft | 442 kts | 261° |
| 2026-05-04 11:59 | 41.73835 | 20.84844 | 32442 ft | 441 kts | 260° |
| 2026-05-04 11:59 | 41.72992 | 20.80912 | 32184 ft | 438 kts | 260° |
| 2026-05-04 11:59 | 41.72152 | 20.77000 | 31895 ft | 435 kts | 260° |
| 2026-05-04 12:00 | 41.71320 | 20.73127 | 31642 ft | 432 kts | 261° |
| 2026-05-04 12:00 | 41.70493 | 20.69269 | 31391 ft | 430 kts | 261° |
| 2026-05-04 12:00 | 41.69673 | 20.65436 | 31148 ft | 428 kts | 261° |
| 2026-05-04 12:00 | 41.68883 | 20.61606 | 30879 ft | 423 kts | 265° |
| 2026-05-04 12:01 | 41.68638 | 20.57775 | 30396 ft | 407 kts | 281° |
| 2026-05-04 12:01 | 41.69161 | 20.54128 | 29814 ft | 394 kts | 295° |
| 2026-05-04 12:02 | 41.74734 | 20.33716 | 26269 ft | 386 kts | 295° |
| 2026-05-04 12:03 | 41.75633 | 20.30383 | 25731 ft | 385 kts | 295° |
| 2026-05-04 12:03 | 41.76541 | 20.27013 | 25193 ft | 385 kts | 295° |
| 2026-05-04 12:03 | 41.77449 | 20.23639 | 24668 ft | 384 kts | 295° |
| 2026-05-04 12:03 | 41.78356 | 20.20263 | 24153 ft | 385 kts | 295° |
| 2026-05-04 12:04 | 41.79264 | 20.16890 | 23637 ft | 385 kts | 295° |
| 2026-05-04 12:04 | 41.80174 | 20.13513 | 23019 ft | 385 kts | 295° |
| 2026-05-04 12:04 | 41.81082 | 20.10139 | 22525 ft | 383 kts | 295° |
| 2026-05-04 12:04 | 41.81979 | 20.06784 | 21991 ft | 382 kts | 294° |
| 2026-05-04 12:05 | 41.82855 | 20.03443 | 21470 ft | 379 kts | 294° |
| 2026-05-04 12:05 | 41.83734 | 20.00133 | 21049 ft | 374 kts | 295° |
| 2026-05-04 12:05 | 41.84606 | 19.96873 | 20667 ft | 369 kts | 295° |
| 2026-05-04 12:05 | 41.85471 | 19.93644 | 20221 ft | 366 kts | 295° |
| 2026-05-04 12:06 | 41.86327 | 19.90446 | 19779 ft | 363 kts | 295° |
| 2026-05-04 12:06 | 41.87174 | 19.87272 | 19351 ft | 360 kts | 295° |
| 2026-05-04 12:06 | 41.88014 | 19.84122 | 18912 ft | 356 kts | 295° |
| 2026-05-04 12:06 | 41.88846 | 19.80999 | 18484 ft | 354 kts | 295° |
| 2026-05-04 12:07 | 41.89662 | 19.77930 | 17989 ft | 351 kts | 294° |
| 2026-05-04 12:07 | 41.90479 | 19.74854 | 17515 ft | 349 kts | 294° |
| 2026-05-04 12:07 | 41.91287 | 19.71794 | 17036 ft | 347 kts | 294° |
| 2026-05-04 12:07 | 41.92088 | 19.68751 | 16571 ft | 344 kts | 294° |
| 2026-05-04 12:08 | 41.92884 | 19.65724 | 16112 ft | 342 kts | 294° |
| 2026-05-04 12:08 | 41.93672 | 19.62725 | 15664 ft | 339 kts | 294° |
| 2026-05-04 12:08 | 41.94457 | 19.59741 | 15214 ft | 337 kts | 294° |
| 2026-05-04 12:08 | 41.95235 | 19.56780 | 14780 ft | 336 kts | 294° |
| 2026-05-04 12:09 | 41.96010 | 19.53834 | 14357 ft | 334 kts | 294° |
| 2026-05-04 12:09 | 41.96780 | 19.50899 | 13917 ft | 332 kts | 293° |
| 2026-05-04 12:09 | 41.97549 | 19.47970 | 13444 ft | 331 kts | 293° |
| 2026-05-04 12:09 | 41.98313 | 19.45060 | 12951 ft | 329 kts | 293° |
| 2026-05-04 12:10 | 41.99071 | 19.42158 | 12509 ft | 328 kts | 293° |
| 2026-05-04 12:10 | 41.99816 | 19.39289 | 12202 ft | 322 kts | 292° |
| 2026-05-04 12:10 | 42.00544 | 19.36472 | 11892 ft | 316 kts | 293° |
| 2026-05-04 12:10 | 42.01262 | 19.33701 | 11594 ft | 312 kts | 293° |
| 2026-05-04 12:11 | 42.01971 | 19.30972 | 11296 ft | 307 kts | 293° |
| 2026-05-04 12:11 | 42.02672 | 19.28282 | 10997 ft | 303 kts | 293° |
| 2026-05-04 12:11 | 42.03362 | 19.25628 | 10695 ft | 299 kts | 292° |
| 2026-05-04 12:11 | 42.04037 | 19.23027 | 10372 ft | 297 kts | 292° |
| 2026-05-04 12:12 | 42.04713 | 19.20407 | 10031 ft | 296 kts | 292° |
| 2026-05-04 12:12 | 42.05389 | 19.17796 | 9651 ft | 295 kts | 292° |
| 2026-05-04 12:12 | 42.05944 | 19.15125 | 9296 ft | 299 kts | 279° |
| 2026-05-04 12:12 | 42.05877 | 19.12326 | 8929 ft | 302 kts | 259° |
| 2026-05-04 12:13 | 42.05194 | 19.09652 | 8556 ft | 302 kts | 249° |
| 2026-05-04 12:14 | 42.03737 | 18.92689 | 6548 ft | 257 kts | 334° |
| 2026-05-04 12:15 | 42.05362 | 18.91788 | 6296 ft | 250 kts | 342° |
| 2026-05-04 12:15 | 42.06973 | 18.90968 | 6208 ft | 248 kts | 342° |
| 2026-05-04 12:15 | 42.08569 | 18.90153 | 6072 ft | 248 kts | 341° |
| 2026-05-04 12:15 | 42.10184 | 18.89326 | 5922 ft | 249 kts | 341° |
| 2026-05-04 12:16 | 42.11798 | 18.88496 | 5586 ft | 247 kts | 341° |
| 2026-05-04 12:16 | 42.13390 | 18.87674 | 5281 ft | 241 kts | 341° |
| 2026-05-04 12:16 | 42.14915 | 18.86883 | 5156 ft | 228 kts | 341° |
| 2026-05-04 12:16 | 42.16353 | 18.86140 | 5024 ft | 214 kts | 341° |
| 2026-05-04 12:17 | 42.17722 | 18.85435 | 4633 ft | 210 kts | 341° |
| 2026-05-04 12:17 | 42.19088 | 18.84730 | 4317 ft | 210 kts | 340° |
| 2026-05-04 12:17 | 42.20456 | 18.84028 | 4064 ft | 210 kts | 340° |
| 2026-05-04 12:17 | 42.21360 | 18.83563 | 3898 ft | 209 kts | 340° |
| 2026-05-04 12:18 | 42.22718 | 18.82864 | 3638 ft | 209 kts | 340° |
| 2026-05-04 12:18 | 42.24075 | 18.82165 | 3376 ft | 208 kts | 339° |
| 2026-05-04 12:18 | 42.25398 | 18.81482 | 3057 ft | 200 kts | 339° |
| 2026-05-04 12:18 | 42.26686 | 18.80817 | 2713 ft | 197 kts | 337° |
| 2026-05-04 12:19 | 42.27963 | 18.80157 | 2412 ft | 196 kts | 336° |
| 2026-05-04 12:19 | 42.29229 | 18.79502 | 2159 ft | 191 kts | 337° |
| 2026-05-04 12:19 | 42.30456 | 18.78884 | 1937 ft | 182 kts | 337° |
| 2026-05-04 12:19 | 42.31610 | 18.78317 | 1768 ft | 172 kts | 338° |
| 2026-05-04 12:20 | 42.32749 | 18.77803 | 1700 ft | 172 kts | 339° |
| 2026-05-04 12:20 | 42.33870 | 18.77285 | 1523 ft | 169 kts | 338° |
| 2026-05-04 12:20 | 42.34963 | 18.76723 | 1423 ft | 167 kts | 338° |
| 2026-05-04 12:20 | 42.36054 | 18.76142 | 1270 ft | 170 kts | 336° |
| 2026-05-04 12:21 | 42.37150 | 18.75551 | 980 ft | 170 kts | 335° |
| 2026-05-04 12:21 | 42.38220 | 18.74872 | 637 ft | 168 kts | 329° |
| 2026-05-04 12:21 | 42.39131 | 18.73917 | 290 ft | 163 kts | 316° |
| 2026-05-04 12:21 | 42.40001 | 18.72887 | 326 ft | 175 kts | 316° |
| 2026-05-04 12:22 | 42.40964 | 18.71706 | 909 ft | 198 kts | 315° |
| 2026-05-04 12:22 | 42.41969 | 18.70348 | 1630 ft | 208 kts | 307° |
| 2026-05-04 12:22 | 42.42674 | 18.68671 | 2174 ft | 204 kts | 289° |
| 2026-05-04 12:22 | 42.42896 | 18.66768 | 2594 ft | 210 kts | 268° |
| 2026-05-04 12:23 | 42.42402 | 18.64831 | 2795 ft | 229 kts | 233° |
| 2026-05-04 12:23 | 42.41165 | 18.63453 | 3399 ft | 234 kts | 212° |
| 2026-05-04 12:23 | 42.39787 | 18.62263 | 3999 ft | 237 kts | 213° |
| 2026-05-04 12:23 | 42.38338 | 18.61222 | 4582 ft | 242 kts | 196° |
| 2026-05-04 12:24 | 42.36654 | 18.61005 | 4953 ft | 247 kts | 173° |
| 2026-05-04 12:24 | 42.34927 | 18.61273 | 5008 ft | 246 kts | 172° |
| 2026-05-04 12:24 | 42.33253 | 18.61565 | 5005 ft | 245 kts | 172° |
| 2026-05-04 12:24 | 42.31564 | 18.61867 | 5011 ft | 245 kts | 171° |
| 2026-05-04 12:25 | 42.29867 | 18.62169 | 5011 ft | 245 kts | 172° |
| 2026-05-04 12:25 | 42.28180 | 18.62466 | 5008 ft | 245 kts | 171° |
| 2026-05-04 12:25 | 42.26492 | 18.62758 | 5005 ft | 245 kts | 172° |
| 2026-05-04 12:25 | 42.24802 | 18.63047 | 5003 ft | 244 kts | 171° |
| 2026-05-04 12:26 | 42.23146 | 18.63505 | 5005 ft | 243 kts | 160° |
| 2026-05-04 12:26 | 42.21531 | 18.64206 | 4981 ft | 244 kts | 161° |
| 2026-05-04 12:26 | 42.19916 | 18.64898 | 4723 ft | 243 kts | 161° |
| 2026-05-04 12:26 | 42.18308 | 18.65585 | 4460 ft | 241 kts | 161° |
| 2026-05-04 12:27 | 42.16711 | 18.66265 | 4201 ft | 240 kts | 161° |
| 2026-05-04 12:27 | 42.15152 | 18.67035 | 4001 ft | 238 kts | 149° |
| 2026-05-04 12:27 | 42.13928 | 18.68501 | 3954 ft | 237 kts | 123° |
| 2026-05-04 12:27 | 42.13322 | 18.70533 | 3961 ft | 235 kts | 96° |
| 2026-05-04 12:28 | 42.13443 | 18.72680 | 3966 ft | 234 kts | 74° |
| 2026-05-04 12:28 | 42.13860 | 18.74803 | 3964 ft | 234 kts | 75° |
| 2026-05-04 12:28 | 42.14279 | 18.76928 | 3962 ft | 235 kts | 74° |
| 2026-05-04 12:28 | 42.14696 | 18.79052 | 3963 ft | 233 kts | 74° |
| 2026-05-04 12:29 | 42.15110 | 18.81164 | 3962 ft | 234 kts | 74° |
| 2026-05-04 12:29 | 42.15772 | 18.83143 | 3959 ft | 233 kts | 51° |
| 2026-05-04 12:29 | 42.17036 | 18.84490 | 3730 ft | 234 kts | 22° |
| 2026-05-04 12:29 | 42.18617 | 18.84814 | 3415 ft | 228 kts | 353° |
| 2026-05-04 12:30 | 42.20100 | 18.84217 | 3217 ft | 218 kts | 339° |
| 2026-05-04 12:30 | 42.21491 | 18.83494 | 3021 ft | 211 kts | 339° |
| 2026-05-04 12:30 | 42.22854 | 18.82792 | 2850 ft | 208 kts | 338° |
| 2026-05-04 12:30 | 42.24196 | 18.82101 | 2680 ft | 207 kts | 338° |
| 2026-05-04 12:31 | 42.25532 | 18.81413 | 2476 ft | 201 kts | 338° |
| 2026-05-04 12:31 | 42.26819 | 18.80751 | 2253 ft | 198 kts | 336° |
| 2026-05-04 12:31 | 42.28101 | 18.80088 | 2054 ft | 197 kts | 338° |
| 2026-05-04 12:31 | 42.29374 | 18.79433 | 1863 ft | 192 kts | 338° |
| 2026-05-04 12:32 | 42.30597 | 18.78801 | 1669 ft | 180 kts | 337° |
| 2026-05-04 12:32 | 42.32853 | 18.77695 | 1365 ft | 170 kts | 339° |
| 2026-05-04 12:32 | 42.33943 | 18.77215 | 1210 ft | 164 kts | 340° |
| 2026-05-04 12:33 | 42.35001 | 18.76752 | 1037 ft | 158 kts | 340° |
| 2026-05-04 12:33 | 42.36025 | 18.76271 | 883 ft | 153 kts | 337° |
| 2026-05-04 12:33 | 42.37026 | 18.75763 | 739 ft | 154 kts | 337° |
| 2026-05-04 12:33 | 42.38002 | 18.75185 | 513 ft | 151 kts | 327° |
| 2026-05-04 12:34 | 42.38808 | 18.74293 | 302 ft | 149 kts | 315° |
| 2026-05-04 12:34 | 42.39585 | 18.73372 | 93 ft | 148 kts | 317° |
| 2026-05-04 12:34 | 42.40298 | 18.72523 | 38 ft | 115 kts | 318° |
| 2026-05-04 12:34 | 42.40771 | 18.71964 | 36 ft | 66 kts | 319° |
| 2026-05-04 12:35 | 42.40915 | 18.71799 | 36 ft | 10 kts | 332° |
| 2026-05-04 12:35 | 42.40974 | 18.71821 | 35 ft | 8 kts | 37° |
| 2026-05-04 12:35 | 42.40997 | 18.71852 | 35 ft | 3 kts | 47° |
| 2026-05-04 12:35 | 42.41029 | 18.71846 | 35 ft | 8 kts | 334° |
| 2026-05-04 12:36 | 42.41077 | 18.71793 | 35 ft | 10 kts | 319° |
| 2026-05-04 12:36 | 42.41136 | 18.71722 | 36 ft | 11 kts | 319° |
| 2026-05-04 12:36 | 42.41192 | 18.71656 | 36 ft | 8 kts | 319° |
| 2026-05-04 12:36 | 42.41241 | 18.71607 | 37 ft | 10 kts | 346° |
| 2026-05-04 12:37 | 42.41268 | 18.71640 | 36 ft | 2 kts | 111° |
| 2026-05-04 12:37 | 42.41254 | 18.71648 | 36 ft | 0 kts | 157° |